Time;durP1;ratioP1;P1;durP2;ratioP2;P2;SDS_P1;SDS_P2;PMS_P1;PMS_P2;Temp;Humidity;BMP_temperature;BMP_pressure;BME280_temperature;BME280_humidity;BME280_pressure;Samples;Min_cycle;Max_cycle;Signal;HPM_P1;HPM_P2
2023/07/18 00:01:24;;;;;;;10.32;2.28;;;;;;;;;;4976854;28;20047;-69
2023/07/18 00:03:49;;;;;;;7.93;2.40;;;;;;;;;;4977193;28;20030;-69
2023/07/18 00:06:17;;;;;;;7.60;2.65;;;;;;;;;;4976950;28;20038;-69
2023/07/18 00:08:43;;;;;;;15.85;2.58;;;;;;;;;;4975712;28;20403;-69
2023/07/18 00:11:08;;;;;;;7.65;2.53;;;;;;;;;;4976906;28;20034;-69
2023/07/18 00:13:33;;;;;;;7.85;2.40;;;;;;;;;;4977132;28;20527;-69
2023/07/18 00:15:59;;;;;;;8.52;2.28;;;;;;;;;;4976690;28;20543;-69
2023/07/18 00:18:24;;;;;;;7.22;2.20;;;;;;;;;;4976690;28;20039;-69
2023/07/18 00:20:50;;;;;;;7.15;2.53;;;;;;;;;;4975400;28;20035;-69
2023/07/18 00:23:15;;;;;;;8.95;2.25;;;;;;;;;;4976750;28;20435;-70
2023/07/18 00:25:40;;;;;;;8.05;2.60;;;;;;;;;;4975628;28;20070;-69
2023/07/18 00:28:06;;;;;;;7.50;2.28;;;;;;;;;;4976744;28;20029;-69
2023/07/18 00:30:31;;;;;;;7.28;2.35;;;;;;;;;;4976960;28;20485;-69
2023/07/18 00:32:56;;;;;;;5.65;2.30;;;;;;;;;;4976325;28;20401;-69
2023/07/18 00:35:22;;;;;;;9.35;2.65;;;;;;;;;;4976516;28;20038;-69
2023/07/18 00:37:48;;;;;;;7.72;2.42;;;;;;;;;;4976486;28;20407;-69
2023/07/18 00:40:15;;;;;;;11.57;2.20;;;;;;;;;;4974078;28;20031;-69
2023/07/18 00:42:43;;;;;;;8.23;2.53;;;;;;;;;;4972697;28;20035;-69
2023/07/18 00:45:08;;;;;;;10.52;2.38;;;;;;;;;;4976551;28;20475;-69
2023/07/18 00:47:40;;;;;;;11.63;2.30;;;;;;;;;;4976267;28;20029;-69
2023/07/18 00:50:07;;;;;;;6.82;2.45;;;;;;;;;;4976635;28;20571;-69
2023/07/18 00:52:34;;;;;;;9.15;2.58;;;;;;;;;;4976265;28;20051;-69
2023/07/18 00:55:00;;;;;;;9.35;2.30;;;;;;;;;;4975844;28;20035;-69
2023/07/18 00:57:26;;;;;;;9.35;2.25;;;;;;;;;;4974949;28;20466;-69
2023/07/18 00:59:52;;;;;;;7.60;2.40;;;;;;;;;;4975639;28;20066;-68
2023/07/18 01:02:18;;;;;;;9.27;2.97;;;;;;;;;;4974802;28;20045;-69
2023/07/18 01:04:43;;;;;;;13.50;2.70;;;;;;;;;;4975931;28;20035;-69
2023/07/18 01:07:08;;;;;;;8.57;2.55;;;;;;;;;;4976039;28;20047;-69
2023/07/18 01:09:34;;;;;;;6.88;2.45;;;;;;;;;;4974634;28;20113;-68
2023/07/18 01:11:59;;;;;;;12.35;2.75;;;;;;;;;;4975861;28;20022;-69
2023/07/18 01:14:25;;;;;;;12.95;2.60;;;;;;;;;;4974559;28;20066;-69
2023/07/18 01:16:54;;;;;;;11.45;2.90;;;;;;;;;;4975776;28;20043;-69
2023/07/18 01:19:19;;;;;;;6.65;2.63;;;;;;;;;;4974649;28;20030;-68
2023/07/18 01:21:45;;;;;;;8.18;2.20;;;;;;;;;;4975592;28;20420;-69
2023/07/18 01:24:10;;;;;;;15.10;2.80;;;;;;;;;;4975607;28;20089;-69
2023/07/18 01:26:35;;;;;;;13.45;2.80;;;;;;;;;;4975792;28;20037;-69
2023/07/18 01:29:01;;;;;;;7.95;2.33;;;;;;;;;;4975477;28;20498;-69
2023/07/18 01:31:27;;;;;;;8.13;2.53;;;;;;;;;;4975636;28;20065;-69
2023/07/18 01:33:53;;;;;;;9.45;3.10;;;;;;;;;;4975372;28;20077;-69
2023/07/18 01:36:18;;;;;;;12.13;2.50;;;;;;;;;;4973436;28;20267;-69
2023/07/18 01:38:44;;;;;;;10.93;2.60;;;;;;;;;;4973952;28;20113;-69
2023/07/18 01:41:09;;;;;;;7.47;2.60;;;;;;;;;;4972882;28;20078;-69
2023/07/18 01:43:35;;;;;;;13.27;2.35;;;;;;;;;;4975042;28;20042;-69
2023/07/18 01:46:00;;;;;;;8.27;2.92;;;;;;;;;;4975172;28;20031;-69
2023/07/18 01:48:26;;;;;;;5.90;2.22;;;;;;;;;;4974887;28;20042;-69
2023/07/18 01:50:52;;;;;;;7.82;2.60;;;;;;;;;;4973136;28;20046;-69
2023/07/18 01:53:17;;;;;;;9.40;2.33;;;;;;;;;;4973990;28;20038;-68
2023/07/18 01:55:43;;;;;;;8.32;2.80;;;;;;;;;;4975083;28;20113;-69
2023/07/18 01:58:08;;;;;;;5.90;2.28;;;;;;;;;;4974740;28;20380;-68
2023/07/18 02:00:35;;;;;;;10.15;2.40;;;;;;;;;;4975190;28;20498;-69
2023/07/18 02:03:00;;;;;;;9.13;2.72;;;;;;;;;;4973709;28;20493;-69
2023/07/18 02:05:28;;;;;;;8.25;2.58;;;;;;;;;;4975087;28;20045;-69
2023/07/18 02:07:54;;;;;;;9.18;2.70;;;;;;;;;;4973760;28;20113;-69
2023/07/18 02:10:20;;;;;;;7.28;2.70;;;;;;;;;;4974858;28;20086;-69
2023/07/18 02:12:46;;;;;;;12.85;2.65;;;;;;;;;;4974682;28;20487;-69
2023/07/18 02:15:15;;;;;;;11.00;2.53;;;;;;;;;;4974569;28;20030;-68
2023/07/18 02:17:42;;;;;;;8.68;2.90;;;;;;;;;;4974811;28;20065;-68
2023/07/18 02:20:09;;;;;;;6.93;2.65;;;;;;;;;;4974901;28;20045;-69
2023/07/18 02:22:35;;;;;;;8.50;2.75;;;;;;;;;;4973640;28;20066;-69
2023/07/18 02:25:02;;;;;;;6.65;2.42;;;;;;;;;;4974544;28;20364;-69
2023/07/18 02:27:27;;;;;;;6.35;2.60;;;;;;;;;;4974407;28;20546;-69
2023/07/18 02:29:53;;;;;;;9.68;3.15;;;;;;;;;;4974509;28;20110;-69
2023/07/18 02:32:18;;;;;;;10.05;3.08;;;;;;;;;;4974545;28;20055;-69
2023/07/18 02:34:44;;;;;;;5.85;2.60;;;;;;;;;;4974578;28;20043;-69
2023/07/18 02:37:09;;;;;;;11.30;2.85;;;;;;;;;;4972981;28;20165;-68
2023/07/18 02:39:35;;;;;;;7.63;2.72;;;;;;;;;;4974633;28;20046;-69
2023/07/18 02:42:02;;;;;;;12.73;3.03;;;;;;;;;;4974674;28;20101;-68
2023/07/18 02:44:28;;;;;;;15.68;3.50;;;;;;;;;;4973046;28;20045;-68
2023/07/18 02:46:53;;;;;;;11.18;2.60;;;;;;;;;;4974503;28;20125;-69
2023/07/18 02:49:18;;;;;;;9.65;2.45;;;;;;;;;;4974385;28;20097;-69
2023/07/18 02:51:44;;;;;;;8.40;2.55;;;;;;;;;;4974591;28;20035;-69
2023/07/18 02:54:09;;;;;;;9.20;2.30;;;;;;;;;;4974143;28;20036;-69
2023/07/18 02:56:35;;;;;;;6.57;2.25;;;;;;;;;;4974209;28;20097;-68
2023/07/18 02:59:01;;;;;;;5.88;2.80;;;;;;;;;;4974386;28;20031;-69
2023/07/18 03:01:27;;;;;;;10.00;2.67;;;;;;;;;;4973319;28;20050;-69
2023/07/18 03:03:54;;;;;;;5.97;2.65;;;;;;;;;;4977011;28;20038;-68
2023/07/18 03:06:19;;;;;;;8.88;2.42;;;;;;;;;;4976938;28;20375;-69
2023/07/18 03:08:45;;;;;;;9.80;2.55;;;;;;;;;;4978312;28;20070;-68
2023/07/18 03:11:10;;;;;;;13.98;3.03;;;;;;;;;;4976870;28;20043;-69
2023/07/18 03:13:36;;;;;;;5.85;2.50;;;;;;;;;;4977838;28;20038;-69
2023/07/18 03:16:04;;;;;;;10.77;2.38;;;;;;;;;;4977957;28;20039;-69
2023/07/18 03:18:30;;;;;;;8.82;2.80;;;;;;;;;;4977750;28;20051;-69
2023/07/18 03:20:55;;;;;;;7.05;2.53;;;;;;;;;;4977904;28;20034;-69
2023/07/18 03:23:21;;;;;;;7.88;2.47;;;;;;;;;;4978019;28;20045;-69
2023/07/18 03:25:47;;;;;;;11.40;2.53;;;;;;;;;;4977696;28;20047;-69
2023/07/18 03:28:12;;;;;;;12.75;2.63;;;;;;;;;;4977731;28;20027;-69
2023/07/18 03:30:40;;;;;;;7.38;2.30;;;;;;;;;;4977710;28;20475;-68
2023/07/18 03:33:06;;;;;;;8.55;2.33;;;;;;;;;;4977778;28;20121;-69
2023/07/18 03:35:32;;;;;;;6.75;2.47;;;;;;;;;;4977490;28;20094;-69
2023/07/18 03:37:57;;;;;;;9.43;2.40;;;;;;;;;;4977835;28;20039;-68
2023/07/18 03:40:23;;;;;;;7.30;2.45;;;;;;;;;;4976715;28;20468;-68
2023/07/18 03:42:48;;;;;;;7.72;2.95;;;;;;;;;;4976216;28;20543;-68
2023/07/18 03:45:14;;;;;;;10.68;2.38;;;;;;;;;;4975168;28;20494;-68
2023/07/18 03:47:40;;;;;;;9.88;2.20;;;;;;;;;;4974765;28;20039;-69
2023/07/18 03:50:10;;;;;;;8.52;2.20;;;;;;;;;;4977344;28;20031;-69
2023/07/18 03:52:36;;;;;;;7.15;2.53;;;;;;;;;;4976317;28;20380;-69
2023/07/18 03:55:03;;;;;;;8.40;2.58;;;;;;;;;;4975905;28;20031;-68
2023/07/18 03:57:29;;;;;;;6.20;2.40;;;;;;;;;;4977064;28;20035;-69
2023/07/18 03:59:55;;;;;;;6.50;2.50;;;;;;;;;;4977164;28;20047;-68
2023/07/18 04:02:20;;;;;;;9.88;2.13;;;;;;;;;;4977010;28;20398;-69
2023/07/18 04:04:46;;;;;;;5.70;1.90;;;;;;;;;;4977213;28;20041;-69
2023/07/18 04:07:11;;;;;;;9.38;2.30;;;;;;;;;;4975944;28;20030;-69
2023/07/18 04:09:36;;;;;;;10.95;2.40;;;;;;;;;;4975937;28;20051;-69
2023/07/18 04:12:02;;;;;;;11.60;2.42;;;;;;;;;;4976861;28;20034;-69
2023/07/18 04:14:27;;;;;;;6.28;2.55;;;;;;;;;;4976662;28;20062;-69
2023/07/18 04:16:52;;;;;;;13.20;2.22;;;;;;;;;;4975931;28;20534;-69
2023/07/18 04:19:19;;;;;;;6.28;2.47;;;;;;;;;;4976796;28;20460;-69
2023/07/18 04:21:44;;;;;;;8.20;2.28;;;;;;;;;;4976890;28;20039;-68
2023/07/18 04:24:10;;;;;;;9.95;2.00;;;;;;;;;;4975681;28;20047;-69
2023/07/18 04:26:36;;;;;;;4.70;2.10;;;;;;;;;;4976802;28;20467;-69
2023/07/18 04:29:04;;;;;;;4.82;1.92;;;;;;;;;;4976712;28;20386;-68
2023/07/18 04:31:29;;;;;;;4.10;2.22;;;;;;;;;;4975469;28;20434;-69
2023/07/18 04:33:54;;;;;;;6.03;3.05;;;;;;;;;;4975545;28;20042;-69
2023/07/18 04:36:20;;;;;;;5.47;2.20;;;;;;;;;;4975308;28;20065;-69
2023/07/18 04:38:45;;;;;;;6.10;1.90;;;;;;;;;;4975335;28;20462;-69
2023/07/18 04:41:10;;;;;;;8.23;2.05;;;;;;;;;;4976478;28;20450;-69
2023/07/18 04:43:35;;;;;;;8.50;2.38;;;;;;;;;;4976503;28;20539;-69
2023/07/18 04:46:01;;;;;;;10.82;2.28;;;;;;;;;;4976058;28;20502;-69
2023/07/18 04:48:26;;;;;;;4.85;2.35;;;;;;;;;;4975063;28;20419;-69
2023/07/18 04:50:59;;;;;;;11.07;2.55;;;;;;;;;;4976224;28;20467;-68
2023/07/18 04:53:30;;;;;;;7.30;2.13;;;;;;;;;;4966972;28;20089;-69
2023/07/18 04:55:55;;;;;;;10.55;2.40;;;;;;;;;;4975922;28;20471;-68
2023/07/18 04:58:23;;;;;;;9.18;2.20;;;;;;;;;;4974947;28;20039;-69
2023/07/18 05:00:48;;;;;;;6.93;2.28;;;;;;;;;;4974845;28;20130;-69
2023/07/18 05:03:13;;;;;;;5.47;1.92;;;;;;;;;;4975740;28;20113;-69
2023/07/18 05:05:39;;;;;;;5.80;2.35;;;;;;;;;;4975794;28;20050;-69
2023/07/18 05:08:04;;;;;;;11.25;2.30;;;;;;;;;;4976091;28;20038;-68
2023/07/18 05:10:29;;;;;;;6.65;1.95;;;;;;;;;;4975804;28;20039;-69
2023/07/18 05:12:55;;;;;;;13.35;2.30;;;;;;;;;;4975917;28;20108;-69
2023/07/18 05:15:21;;;;;;;2.97;1.60;;;;;;;;;;4975722;28;20038;-68
2023/07/18 05:17:47;;;;;;;6.13;2.10;;;;;;;;;;4975771;28;20031;-69
2023/07/18 05:20:13;;;;;;;5.65;1.88;;;;;;;;;;4975451;28;20483;-69
2023/07/18 05:22:39;;;;;;;5.68;1.88;;;;;;;;;;4975737;28;20031;-69
2023/07/18 05:25:06;;;;;;;8.27;2.08;;;;;;;;;;4975069;28;20045;-69
2023/07/18 05:27:31;;;;;;;5.20;1.85;;;;;;;;;;4974127;28;20046;-69
2023/07/18 05:29:56;;;;;;;5.40;2.20;;;;;;;;;;4975587;28;20053;-68
2023/07/18 05:32:22;;;;;;;10.00;2.13;;;;;;;;;;4975411;28;20030;-69
2023/07/18 05:34:49;;;;;;;9.30;1.95;;;;;;;;;;4975490;28;20065;-69
2023/07/18 05:37:15;;;;;;;7.22;2.13;;;;;;;;;;4975382;28;20537;-69
2023/07/18 05:39:40;;;;;;;10.63;2.15;;;;;;;;;;4975554;28;20027;-68
2023/07/18 05:42:06;;;;;;;6.60;2.00;;;;;;;;;;4975362;28;20066;-69
2023/07/18 05:44:32;;;;;;;8.48;2.33;;;;;;;;;;4975045;28;20035;-68
2023/07/18 05:46:58;;;;;;;6.35;1.92;;;;;;;;;;4975342;28;20030;-68
2023/07/18 05:49:23;;;;;;;5.32;1.80;;;;;;;;;;4973930;28;20039;-69
2023/07/18 05:51:49;;;;;;;6.95;1.95;;;;;;;;;;4975355;28;20117;-69
2023/07/18 05:54:14;;;;;;;4.60;1.73;;;;;;;;;;4973944;28;20439;-69
2023/07/18 05:56:41;;;;;;;4.30;1.90;;;;;;;;;;4975042;28;20049;-69
2023/07/18 05:59:07;;;;;;;2.97;1.58;;;;;;;;;;4974947;28;20034;-69
2023/07/18 06:01:32;;;;;;;7.50;1.75;;;;;;;;;;4975102;28;20051;-69
2023/07/18 06:03:59;;;;;;;8.82;2.10;;;;;;;;;;4973840;28;20392;-69
2023/07/18 06:06:24;;;;;;;6.13;1.88;;;;;;;;;;4974826;28;20061;-69
2023/07/18 06:08:50;;;;;;;10.70;1.83;;;;;;;;;;4973813;28;20030;-69
2023/07/18 06:11:16;;;;;;;8.57;1.80;;;;;;;;;;4974228;28;20043;-69
2023/07/18 06:13:41;;;;;;;10.32;1.63;;;;;;;;;;4974643;28;20038;-69
2023/07/18 06:16:06;;;;;;;4.35;1.40;;;;;;;;;;4974314;28;20035;-68
2023/07/18 06:18:32;;;;;;;3.03;1.50;;;;;;;;;;4974673;28;20054;-69
2023/07/18 06:20:57;;;;;;;8.13;1.60;;;;;;;;;;4974866;28;20121;-69
2023/07/18 06:23:23;;;;;;;4.10;1.42;;;;;;;;;;4974826;28;20042;-69
2023/07/18 06:25:48;;;;;;;6.63;1.48;;;;;;;;;;4974593;28;20039;-69
2023/07/18 06:28:13;;;;;;;4.57;1.50;;;;;;;;;;4974765;28;20046;-70
2023/07/18 06:30:39;;;;;;;4.10;1.80;;;;;;;;;;4974415;28;20042;-69
2023/07/18 06:33:04;;;;;;;5.00;1.33;;;;;;;;;;4973432;28;20042;-69
2023/07/18 06:35:30;;;;;;;4.90;1.30;;;;;;;;;;4974483;28;20773;-69
2023/07/18 06:37:55;;;;;;;7.80;1.40;;;;;;;;;;4974550;28;20082;-69
2023/07/18 06:40:20;;;;;;;9.13;1.60;;;;;;;;;;4974444;28;20063;-69
2023/07/18 06:42:46;;;;;;;6.55;1.77;;;;;;;;;;4974730;28;20089;-69
2023/07/18 06:45:12;;;;;;;3.65;1.60;;;;;;;;;;4974058;28;20027;-69
2023/07/18 06:47:37;;;;;;;3.25;1.20;;;;;;;;;;4973178;28;20039;-69
2023/07/18 06:50:03;;;;;;;9.32;1.40;;;;;;;;;;4974169;28;20105;-68
2023/07/18 06:52:28;;;;;;;6.10;1.20;;;;;;;;;;4973073;28;20065;-69
2023/07/18 06:54:54;;;;;;;4.75;1.55;;;;;;;;;;4974277;28;20446;-69
2023/07/18 06:57:20;;;;;;;3.63;1.27;;;;;;;;;;4974302;28;20090;-69
2023/07/18 06:59:45;;;;;;;3.10;1.20;;;;;;;;;;4974257;28;20089;-69
2023/07/18 07:02:11;;;;;;;3.50;1.33;;;;;;;;;;4973045;28;20057;-69
2023/07/18 07:04:39;;;;;;;8.52;1.85;;;;;;;;;;4974555;28;20399;-69
2023/07/18 07:07:08;;;;;;;4.88;1.30;;;;;;;;;;4973845;28;20441;-69
2023/07/18 07:09:33;;;;;;;6.78;1.30;;;;;;;;;;4962625;28;20450;-69
2023/07/18 07:11:59;;;;;;;5.07;1.52;;;;;;;;;;4974198;28;20038;-69
2023/07/18 07:14:25;;;;;;;5.55;1.50;;;;;;;;;;4974037;28;20027;-69
2023/07/18 07:16:50;;;;;;;4.18;1.50;;;;;;;;;;4972864;28;20089;-69
2023/07/18 07:19:15;;;;;;;8.68;1.60;;;;;;;;;;4972638;28;20046;-70
2023/07/18 07:21:42;;;;;;;5.18;1.30;;;;;;;;;;4972621;28;20034;-69
2023/07/18 07:24:08;;;;;;;6.13;1.48;;;;;;;;;;4971780;28;20035;-69
2023/07/18 07:26:33;;;;;;;5.10;1.27;;;;;;;;;;4973658;28;20125;-69
2023/07/18 07:28:59;;;;;;;6.78;1.40;;;;;;;;;;4973985;28;20158;-69
2023/07/18 07:31:24;;;;;;;4.93;1.63;;;;;;;;;;4972723;28;20039;-69
2023/07/18 07:33:50;;;;;;;5.60;2.28;;;;;;;;;;4974161;28;20098;-69
2023/07/18 07:36:15;;;;;;;15.85;4.13;;;;;;;;;;4973788;28;20034;-70
2023/07/18 07:38:41;;;;;;;11.45;2.15;;;;;;;;;;4973964;28;20039;-69
2023/07/18 07:41:07;;;;;;;6.82;2.47;;;;;;;;;;4973936;28;20081;-70
2023/07/18 07:43:33;;;;;;;6.80;1.80;;;;;;;;;;4971418;28;20043;-70
2023/07/18 07:45:58;;;;;;;6.60;1.83;;;;;;;;;;4974125;28;20046;-69
2023/07/18 07:48:24;;;;;;;7.03;1.40;;;;;;;;;;4974353;28;20043;-69
2023/07/18 07:50:49;;;;;;;7.53;1.70;;;;;;;;;;4976373;28;20041;-69
2023/07/18 07:53:14;;;;;;;6.80;1.52;;;;;;;;;;4977452;28;20045;-70
2023/07/18 07:55:40;;;;;;;7.47;1.40;;;;;;;;;;4975665;28;20097;-69
2023/07/18 07:58:05;;;;;;;6.93;1.42;;;;;;;;;;4977453;28;20034;-69
2023/07/18 08:00:30;;;;;;;6.05;1.13;;;;;;;;;;4977219;28;20066;-69
2023/07/18 08:02:56;;;;;;;9.32;1.70;;;;;;;;;;4977021;28;20039;-70
2023/07/18 08:05:21;;;;;;;5.30;1.30;;;;;;;;;;4975996;28;20023;-69
2023/07/18 08:07:47;;;;;;;12.13;1.48;;;;;;;;;;4977287;28;20038;-69
2023/07/18 08:10:13;;;;;;;6.30;1.27;;;;;;;;;;4976920;28;20043;-70
2023/07/18 08:12:39;;;;;;;6.60;1.25;;;;;;;;;;4976736;28;20089;-70
2023/07/18 08:15:06;;;;;;;5.03;1.38;;;;;;;;;;4976879;28;20035;-70
2023/07/18 08:17:31;;;;;;;5.40;1.20;;;;;;;;;;4976522;28;20481;-69
2023/07/18 08:19:56;;;;;;;6.93;1.85;;;;;;;;;;4977010;28;20089;-69
2023/07/18 08:22:22;;;;;;;7.03;1.27;;;;;;;;;;4976850;28;20086;-69
2023/07/18 08:24:47;;;;;;;10.90;1.30;;;;;;;;;;4976989;28;20043;-69
2023/07/18 08:27:12;;;;;;;8.73;1.30;;;;;;;;;;4976791;28;20176;-70
2023/07/18 08:29:38;;;;;;;4.40;1.60;;;;;;;;;;4971527;28;20454;-69
2023/07/18 08:32:04;;;;;;;6.60;1.23;;;;;;;;;;4976760;28;20130;-70
2023/07/18 08:34:29;;;;;;;6.25;1.33;;;;;;;;;;4976146;28;20035;-69
2023/07/18 08:36:54;;;;;;;7.53;1.35;;;;;;;;;;4976705;28;20038;-69
2023/07/18 08:39:20;;;;;;;9.18;1.50;;;;;;;;;;4976465;28;20442;-70
2023/07/18 08:41:47;;;;;;;7.30;1.30;;;;;;;;;;4976996;28;20057;-70
2023/07/18 08:44:14;;;;;;;7.30;1.13;;;;;;;;;;4976585;28;20074;-69
2023/07/18 08:46:45;;;;;;;7.55;1.50;;;;;;;;;;4976282;28;20049;-70
2023/07/18 08:49:13;;;;;;;8.27;1.83;;;;;;;;;;4974008;28;20030;-69
2023/07/18 08:51:39;;;;;;;6.32;1.30;;;;;;;;;;4975252;28;20042;-69
2023/07/18 08:54:05;;;;;;;5.18;1.63;;;;;;;;;;4976284;28;20058;-70
2023/07/18 08:56:30;;;;;;;5.18;1.33;;;;;;;;;;4976120;28;20030;-70
2023/07/18 08:58:57;;;;;;;5.10;1.27;;;;;;;;;;4976081;28;20066;-70
2023/07/18 09:01:24;;;;;;;12.52;1.65;;;;;;;;;;4973408;28;20061;-70
2023/07/18 09:03:49;;;;;;;5.13;1.45;;;;;;;;;;4974786;28;20031;-70
2023/07/18 09:06:19;;;;;;;4.13;1.02;;;;;;;;;;4976170;28;20399;-70
2023/07/18 09:08:45;;;;;;;4.45;1.00;;;;;;;;;;4976016;28;20039;-70
2023/07/18 09:11:12;;;;;;;3.88;1.02;;;;;;;;;;4976010;28;20378;-70
2023/07/18 09:13:38;;;;;;;5.68;1.13;;;;;;;;;;4973622;28;20047;-70
2023/07/18 09:16:15;;;;;;;6.95;1.25;;;;;;;;;;4962422;28;20066;-70
2023/07/18 09:18:47;;;;;;;4.53;1.45;;;;;;;;;;4975974;28;20038;-70
2023/07/18 09:21:12;;;;;;;5.97;1.42;;;;;;;;;;4975501;28;20490;-70
2023/07/18 09:23:42;;;;;;;5.72;1.30;;;;;;;;;;4975824;28;20122;-69
2023/07/18 09:26:13;;;;;;;2.95;1.27;;;;;;;;;;4975721;28;20050;-70
2023/07/18 09:28:38;;;;;;;4.82;1.35;;;;;;;;;;4975528;28;20046;-70
2023/07/18 09:31:25;;;;;;;3.55;0.90;;;;;;;;;;4975542;28;20391;-70
2023/07/18 09:33:52;;;;;;;2.70;1.00;;;;;;;;;;4967339;28;20061;-70
2023/07/18 09:36:21;;;;;;;4.72;1.10;;;;;;;;;;4974488;28;20081;-70
2023/07/18 09:38:49;;;;;;;5.07;1.10;;;;;;;;;;4974714;28;20053;-70
2023/07/18 09:41:22;;;;;;;6.03;1.13;;;;;;;;;;4975076;28;20034;-70
2023/07/18 09:43:48;;;;;;;3.50;0.90;;;;;;;;;;4975648;28;20123;-70
2023/07/18 09:46:15;;;;;;;5.00;1.20;;;;;;;;;;4971138;28;20050;-69
2023/07/18 09:48:41;;;;;;;3.25;0.90;;;;;;;;;;4974231;28;20101;-69
2023/07/18 09:51:14;;;;;;;9.95;1.25;;;;;;;;;;4973049;28;20034;-70
2023/07/18 09:53:44;;;;;;;2.90;1.00;;;;;;;;;;4974980;28;20396;-70
2023/07/18 09:56:10;;;;;;;4.75;1.02;;;;;;;;;;4975043;28;20035;-69
2023/07/18 09:58:38;;;;;;;4.75;1.00;;;;;;;;;;4973995;28;20654;-70
2023/07/18 10:01:05;;;;;;;4.10;1.02;;;;;;;;;;4963446;28;20054;-69
2023/07/18 10:03:32;;;;;;;4.68;1.00;;;;;;;;;;4974783;28;20043;-70
2023/07/18 10:05:57;;;;;;;10.75;1.02;;;;;;;;;;4974000;28;20035;-70
2023/07/18 10:08:23;;;;;;;6.45;1.00;;;;;;;;;;4973685;28;20034;-70
2023/07/18 10:11:07;;;;;;;4.65;1.10;;;;;;;;;;4973941;28;20039;-70
2023/07/18 10:13:40;;;;;;;6.75;1.38;;;;;;;;;;4973603;28;20043;-70
2023/07/18 10:16:12;;;;;;;5.25;1.05;;;;;;;;;;4973706;28;20043;-70
2023/07/18 10:18:45;;;;;;;6.60;1.13;;;;;;;;;;4974645;28;20047;-70
2023/07/18 10:21:12;;;;;;;4.72;1.02;;;;;;;;;;4974823;28;20255;-70
2023/07/18 10:23:43;;;;;;;6.00;1.35;;;;;;;;;;4974770;28;20125;-70
2023/07/18 10:26:09;;;;;;;3.15;0.90;;;;;;;;;;4974648;28;20035;-70
2023/07/18 10:28:43;;;;;;;3.70;0.95;;;;;;;;;;4974558;28;20505;-70
2023/07/18 10:31:25;;;;;;;4.30;1.40;;;;;;;;;;4974288;28;20550;-70
2023/07/18 10:34:11;;;;;;;7.28;1.10;;;;;;;;;;4957505;28;20074;-69
2023/07/18 10:36:38;;;;;;;2.97;0.70;;;;;;;;;;4965322;28;20046;-69
2023/07/18 10:39:12;;;;;;;4.78;1.00;;;;;;;;;;4973345;28;20065;-70
2023/07/18 10:41:42;;;;;;;8.55;1.02;;;;;;;;;;4972974;28;20495;-70
2023/07/18 10:44:13;;;;;;;3.40;1.00;;;;;;;;;;4973358;28;20043;-70
2023/07/18 10:46:39;;;;;;;7.90;1.20;;;;;;;;;;4973335;28;20078;-69
2023/07/18 10:49:05;;;;;;;9.43;1.17;;;;;;;;;;4974352;28;20105;-70
2023/07/18 10:51:32;;;;;;;4.32;0.90;;;;;;;;;;4974311;28;20119;-69
2023/07/18 10:54:00;;;;;;;3.97;1.20;;;;;;;;;;4973305;28;20062;-69
2023/07/18 10:56:26;;;;;;;4.50;0.88;;;;;;;;;;4974115;28;20026;-70
2023/07/18 10:58:52;;;;;;;4.07;0.95;;;;;;;;;;4974483;28;20400;-69
2023/07/18 11:01:18;;;;;;;7.60;1.38;;;;;;;;;;4973873;28;20078;-70
2023/07/18 11:03:47;;;;;;;7.65;1.05;;;;;;;;;;4973973;28;20031;-70
2023/07/18 11:06:14;;;;;;;4.75;0.90;;;;;;;;;;4974181;28;20039;-69
2023/07/18 11:08:45;;;;;;;6.95;1.27;;;;;;;;;;4973063;28;20050;-69
2023/07/18 11:11:11;;;;;;;7.18;1.40;;;;;;;;;;4974118;28;20066;-69
2023/07/18 11:13:38;;;;;;;12.10;1.08;;;;;;;;;;4974278;28;20069;-69
2023/07/18 11:16:07;;;;;;;4.47;1.00;;;;;;;;;;4972173;28;20113;-69
2023/07/18 11:18:35;;;;;;;3.10;0.85;;;;;;;;;;4973857;28;20442;-69
2023/07/18 11:21:04;;;;;;;4.28;1.00;;;;;;;;;;4973056;28;20034;-69
2023/07/18 11:23:30;;;;;;;2.45;0.80;;;;;;;;;;4991758;28;20047;-70
2023/07/18 11:25:56;;;;;;;9.23;1.30;;;;;;;;;;4978070;28;20035;-69
2023/07/18 11:28:21;;;;;;;5.68;0.80;;;;;;;;;;4976596;28;20035;-69
2023/07/18 11:30:47;;;;;;;3.65;0.90;;;;;;;;;;4977753;28;20051;-70
2023/07/18 11:33:15;;;;;;;3.63;0.80;;;;;;;;;;4977809;28;20046;-70
2023/07/18 11:35:45;;;;;;;7.15;1.05;;;;;;;;;;4972064;28;20049;-69
2023/07/18 11:38:11;;;;;;;3.95;1.65;;;;;;;;;;4977774;28;20089;-69
2023/07/18 11:40:37;;;;;;;2.80;0.90;;;;;;;;;;4977877;28;20047;-70
2023/07/18 11:43:02;;;;;;;6.43;1.00;;;;;;;;;;4977641;28;20031;-70
2023/07/18 11:45:28;;;;;;;4.32;1.20;;;;;;;;;;4977411;28;20122;-69
2023/07/18 11:47:56;;;;;;;3.97;1.00;;;;;;;;;;4976465;28;20472;-69
2023/07/18 11:50:25;;;;;;;5.00;1.17;;;;;;;;;;4977414;28;20030;-70
2023/07/18 11:52:51;;;;;;;3.47;0.95;;;;;;;;;;4970648;28;20130;-70
2023/07/18 11:55:17;;;;;;;6.53;1.23;;;;;;;;;;4965456;28;20051;-70
2023/07/18 11:57:43;;;;;;;5.50;1.38;;;;;;;;;;4969545;28;20027;-69
2023/07/18 12:00:11;;;;;;;4.57;1.10;;;;;;;;;;4973905;28;20050;-69
2023/07/18 12:02:37;;;;;;;4.55;1.15;;;;;;;;;;4963051;28;20435;-69
2023/07/18 12:05:04;;;;;;;3.95;1.10;;;;;;;;;;4975886;28;20035;-70
2023/07/18 12:07:29;;;;;;;4.03;1.20;;;;;;;;;;4976791;28;20039;-69
2023/07/18 12:09:55;;;;;;;4.63;1.00;;;;;;;;;;4975110;28;20038;-69
2023/07/18 12:12:21;;;;;;;7.72;1.25;;;;;;;;;;4977189;28;20483;-69
2023/07/18 12:14:47;;;;;;;4.30;1.40;;;;;;;;;;4976490;28;20050;-69
2023/07/18 12:17:12;;;;;;;7.00;1.63;;;;;;;;;;4976753;28;20038;-69
2023/07/18 12:19:37;;;;;;;6.10;1.48;;;;;;;;;;4975450;28;20034;-69
2023/07/18 12:22:03;;;;;;;7.28;1.40;;;;;;;;;;4976298;28;20038;-70
2023/07/18 12:24:28;;;;;;;3.38;0.90;;;;;;;;;;4976568;28;20097;-70
2023/07/18 12:26:53;;;;;;;6.03;1.10;;;;;;;;;;4974619;28;20034;-69
2023/07/18 12:29:19;;;;;;;2.60;0.80;;;;;;;;;;4976848;28;20078;-69
2023/07/18 12:31:51;;;;;;;6.75;1.23;;;;;;;;;;4976248;28;20030;-69
2023/07/18 12:34:17;;;;;;;4.30;1.38;;;;;;;;;;4975095;28;20118;-69
2023/07/18 12:36:43;;;;;;;4.25;0.90;;;;;;;;;;4976503;28;20055;-69
2023/07/18 12:39:08;;;;;;;9.00;1.23;;;;;;;;;;4974815;28;20123;-69
2023/07/18 12:41:34;;;;;;;3.00;1.00;;;;;;;;;;4976188;28;20111;-69
2023/07/18 12:44:00;;;;;;;5.78;1.15;;;;;;;;;;4975191;28;20047;-69
2023/07/18 12:46:26;;;;;;;4.95;1.50;;;;;;;;;;4976194;28;20113;-70
2023/07/18 12:48:55;;;;;;;6.18;1.17;;;;;;;;;;4975432;28;20457;-69
2023/07/18 12:51:21;;;;;;;5.25;1.70;;;;;;;;;;4976173;28;20047;-70
2023/07/18 12:53:47;;;;;;;7.50;1.42;;;;;;;;;;4976047;28;20038;-70
2023/07/18 12:56:14;;;;;;;3.45;1.10;;;;;;;;;;4976052;28;20027;-70
2023/07/18 12:58:41;;;;;;;6.35;1.40;;;;;;;;;;4958314;28;20519;-70
2023/07/18 13:01:07;;;;;;;6.78;1.38;;;;;;;;;;4973777;28;20050;-69
2023/07/18 13:03:33;;;;;;;5.78;1.30;;;;;;;;;;4971253;28;20121;-70
2023/07/18 13:05:58;;;;;;;5.18;1.08;;;;;;;;;;4976285;28;20045;-69
2023/07/18 13:08:24;;;;;;;5.95;1.70;;;;;;;;;;4974918;28;20042;-70
2023/07/18 13:10:49;;;;;;;4.78;1.17;;;;;;;;;;4975589;28;20031;-69
2023/07/18 13:13:14;;;;;;;5.43;1.45;;;;;;;;;;4976063;28;20070;-69
2023/07/18 13:15:40;;;;;;;7.53;1.30;;;;;;;;;;4975792;28;20442;-69
2023/07/18 13:18:05;;;;;;;6.10;1.50;;;;;;;;;;4975777;28;20372;-70
2023/07/18 13:20:30;;;;;;;6.53;1.48;;;;;;;;;;4975565;28;20057;-70
2023/07/18 13:22:56;;;;;;;7.45;2.22;;;;;;;;;;4975834;28;20042;-69
2023/07/18 13:25:21;;;;;;;7.10;1.58;;;;;;;;;;4975680;28;20038;-70
2023/07/18 13:27:46;;;;;;;5.18;1.35;;;;;;;;;;4974420;28;20066;-69
2023/07/18 13:30:12;;;;;;;3.90;1.23;;;;;;;;;;4975744;28;20046;-69
2023/07/18 13:32:37;;;;;;;5.18;1.13;;;;;;;;;;4975150;28;20027;-69
2023/07/18 13:35:04;;;;;;;10.20;1.42;;;;;;;;;;4975584;28;20102;-70
2023/07/18 13:37:29;;;;;;;6.57;1.30;;;;;;;;;;4975332;28;20121;-70
2023/07/18 13:39:55;;;;;;;4.68;1.20;;;;;;;;;;4975621;28;20459;-70
2023/07/18 13:42:20;;;;;;;4.28;1.20;;;;;;;;;;4975363;28;20121;-69
2023/07/18 13:44:45;;;;;;;4.43;1.13;;;;;;;;;;4975282;28;20038;-69
2023/07/18 13:47:11;;;;;;;6.53;1.60;;;;;;;;;;4974929;28;20360;-69
2023/07/18 13:49:36;;;;;;;6.80;1.45;;;;;;;;;;4975240;28;20042;-69
2023/07/18 13:52:02;;;;;;;4.85;1.30;;;;;;;;;;4975410;28;20039;-69
2023/07/18 13:54:28;;;;;;;4.80;0.95;;;;;;;;;;4975026;28;20027;-70
2023/07/18 13:56:53;;;;;;;5.43;1.33;;;;;;;;;;4975144;28;20125;-69
2023/07/18 13:59:19;;;;;;;2.67;1.08;;;;;;;;;;4975162;28;20046;-70
2023/07/18 14:01:45;;;;;;;3.58;1.10;;;;;;;;;;4974598;28;20050;-70
2023/07/18 14:04:10;;;;;;;3.90;0.88;;;;;;;;;;4974986;28;20511;-70
2023/07/18 14:06:35;;;;;;;5.00;1.10;;;;;;;;;;4974959;28;20046;-70
2023/07/18 14:09:01;;;;;;;3.53;1.15;;;;;;;;;;4975142;28;20039;-69
2023/07/18 14:11:26;;;;;;;3.83;1.10;;;;;;;;;;4974772;28;20113;-70
2023/07/18 14:13:51;;;;;;;4.25;1.25;;;;;;;;;;4974989;28;20118;-69
2023/07/18 14:16:17;;;;;;;4.07;1.00;;;;;;;;;;4975043;28;20083;-69
2023/07/18 14:18:42;;;;;;;4.93;1.00;;;;;;;;;;4974835;28;20077;-70
2023/07/18 14:21:08;;;;;;;4.90;1.02;;;;;;;;;;4973599;28;20039;-70
2023/07/18 14:23:33;;;;;;;3.42;1.17;;;;;;;;;;4973553;28;20045;-70
2023/07/18 14:25:58;;;;;;;5.45;1.13;;;;;;;;;;4974731;28;20108;-69
2023/07/18 14:28:24;;;;;;;7.28;1.83;;;;;;;;;;4974334;28;20050;-69
2023/07/18 14:30:49;;;;;;;3.30;1.10;;;;;;;;;;4974360;28;20117;-69
2023/07/18 14:33:16;;;;;;;4.60;1.00;;;;;;;;;;4974670;28;20438;-70
2023/07/18 14:35:42;;;;;;;4.13;1.23;;;;;;;;;;4974445;28;20041;-69